createdAt,value
2019-06-18T00:00:14.053Z,1006.66
2019-06-18T00:01:13.969Z,1006.63
2019-06-18T00:02:14.045Z,1006.65
2019-06-18T00:03:13.986Z,1006.64
2019-06-18T00:04:14.062Z,1006.62
2019-06-18T00:05:14.045Z,1006.59
2019-06-18T00:06:14.046Z,1006.61
2019-06-18T00:07:13.981Z,1006.58
2019-06-18T00:08:14.046Z,1006.56
2019-06-18T00:09:13.990Z,1006.56
2019-06-18T00:10:14.052Z,1006.53
2019-06-18T00:11:13.990Z,1006.54
2019-06-18T00:12:14.062Z,1006.51
2019-06-18T00:13:14.058Z,1006.52
2019-06-18T00:14:13.996Z,1006.47
2019-06-18T00:15:13.995Z,1006.50
2019-06-18T00:16:14.070Z,1006.49
2019-06-18T00:17:13.995Z,1006.50
2019-06-18T00:18:13.990Z,1006.48
2019-06-18T00:19:13.993Z,1006.50
2019-06-18T00:20:14.052Z,1006.51
2019-06-18T00:21:14.059Z,1006.47
2019-06-18T00:22:14.013Z,1006.45
2019-06-18T00:23:14.060Z,1006.49
2019-06-18T00:24:14.026Z,1006.44
2019-06-18T00:25:14.001Z,1006.43
2019-06-18T00:26:13.987Z,1006.47
2019-06-18T00:27:14.019Z,1006.42
2019-06-18T00:28:13.988Z,1006.43
2019-06-18T00:29:14.005Z,1006.42
2019-06-18T00:30:14.081Z,1006.41
2019-06-18T00:31:13.995Z,1006.42
2019-06-18T00:32:14.056Z,1006.40
2019-06-18T00:33:14.077Z,1006.39
2019-06-18T00:34:14.064Z,1006.39
2019-06-18T00:35:14.085Z,1006.39
2019-06-18T00:36:13.978Z,1006.37
2019-06-18T00:37:14.038Z,1006.34
2019-06-18T00:38:14.059Z,1006.38
2019-06-18T00:39:14.066Z,1006.37
2019-06-18T00:40:22.990Z,1006.37
2019-06-18T00:41:13.971Z,1006.33
2019-06-18T00:42:16.748Z,1006.36
2019-06-18T00:43:14.039Z,1006.41
2019-06-18T00:44:14.013Z,1006.39
2019-06-18T00:45:14.057Z,1006.38
2019-06-18T00:46:13.992Z,1006.39
2019-06-18T00:47:16.641Z,1006.34
2019-06-18T00:48:13.997Z,1006.37
2019-06-18T00:49:14.062Z,1006.37
2019-06-18T00:50:16.522Z,1006.37
2019-06-18T00:51:16.698Z,1006.35
2019-06-18T00:52:14.069Z,1006.35
2019-06-18T00:53:14.068Z,1006.31
2019-06-18T00:54:14.005Z,1006.29
2019-06-18T00:55:14.067Z,1006.27
2019-06-18T00:56:14.027Z,1006.32
2019-06-18T00:57:14.085Z,1006.26
2019-06-18T00:58:14.061Z,1006.29
2019-06-18T00:59:16.442Z,1006.28
2019-06-18T01:00:14.104Z,1006.27
2019-06-18T01:01:16.787Z,1006.29
2019-06-18T01:02:13.985Z,1006.27
2019-06-18T01:03:14.089Z,1006.28
2019-06-18T01:04:14.033Z,1006.28
2019-06-18T01:05:14.015Z,1006.30
2019-06-18T01:06:14.098Z,1006.27
2019-06-18T01:07:14.035Z,1006.29
2019-06-18T01:08:13.993Z,1006.27
2019-06-18T01:09:16.450Z,1006.27
2019-06-18T01:10:16.711Z,1006.26
2019-06-18T01:11:14.074Z,1006.26
2019-06-18T01:12:14.012Z,1006.29
2019-06-18T01:13:16.631Z,1006.28
2019-06-18T01:14:14.006Z,1006.30
2019-06-18T01:15:14.075Z,1006.26
2019-06-18T01:16:21.738Z,1006.29
2019-06-18T01:17:16.744Z,1006.21
2019-06-18T01:18:14.045Z,1006.27
2019-06-18T01:19:14.095Z,1006.21
2019-06-18T01:20:14.141Z,1006.22
2019-06-18T01:21:14.100Z,1006.14
2019-06-18T01:22:14.118Z,1006.24
2019-06-18T01:23:14.058Z,1006.20
2019-06-18T01:24:14.144Z,1006.23
2019-06-18T01:25:14.110Z,1006.24
2019-06-18T01:26:14.289Z,1006.20
2019-06-18T01:27:14.106Z,1006.16
2019-06-18T01:28:14.125Z,1006.22
2019-06-18T01:29:14.048Z,1006.22
2019-06-18T01:30:14.039Z,1006.18
2019-06-18T01:31:14.048Z,1006.20
2019-06-18T01:32:14.110Z,1006.17
2019-06-18T01:33:14.128Z,1006.19
2019-06-18T01:34:14.040Z,1006.17
2019-06-18T01:35:14.038Z,1006.11
2019-06-18T01:36:14.042Z,1006.14
2019-06-18T01:37:14.121Z,1006.14
2019-06-18T01:38:14.105Z,1006.14
2019-06-18T01:39:14.113Z,1006.11
2019-06-18T01:40:14.103Z,1006.14
2019-06-18T01:41:14.042Z,1006.06
2019-06-18T01:42:14.122Z,1006.05
2019-06-18T01:43:14.043Z,1006.06
2019-06-18T01:44:14.116Z,1006.07
2019-06-18T01:45:14.065Z,1006.06
2019-06-18T01:46:14.097Z,1006.06
2019-06-18T01:47:14.056Z,1006.02
2019-06-18T01:48:14.102Z,1006.04
2019-06-18T01:49:14.113Z,1006.01
2019-06-18T01:50:14.114Z,1006.01
2019-06-18T01:51:14.052Z,1006.01
2019-06-18T01:52:14.017Z,1006.01
2019-06-18T01:53:14.117Z,1005.99
2019-06-18T01:54:14.010Z,1005.98
2019-06-18T01:55:14.052Z,1005.97
2019-06-18T01:56:14.126Z,1005.96
2019-06-18T01:57:14.789Z,1005.96
2019-06-18T01:58:14.133Z,1005.96
2019-06-18T01:59:14.160Z,1005.91
2019-06-18T02:00:14.094Z,1005.92
2019-06-18T02:01:14.134Z,1005.89
2019-06-18T02:02:14.129Z,1005.85
2019-06-18T02:03:14.065Z,1005.86
2019-06-18T02:04:14.131Z,1005.84
2019-06-18T02:05:14.086Z,1005.86
2019-06-18T02:06:14.199Z,1005.86
2019-06-18T02:07:14.085Z,1005.85
2019-06-18T02:08:14.142Z,1005.88
2019-06-18T02:09:14.067Z,1005.86
2019-06-18T02:10:14.097Z,1005.91
2019-06-18T02:11:14.066Z,1005.90
2019-06-18T02:12:14.064Z,1005.88
2019-06-18T02:13:14.072Z,1005.88
2019-06-18T02:14:14.145Z,1005.87
2019-06-18T02:15:14.143Z,1005.91
2019-06-18T02:16:13.996Z,1005.93
2019-06-18T02:17:14.034Z,1005.91
2019-06-18T02:18:14.082Z,1005.92
2019-06-18T02:19:14.006Z,1005.92
2019-06-18T02:20:14.042Z,1005.91
2019-06-18T02:21:14.103Z,1005.93
2019-06-18T02:22:14.091Z,1005.92
2019-06-18T02:23:14.029Z,1005.90
2019-06-18T02:24:13.997Z,1005.92
2019-06-18T02:25:14.003Z,1005.94
2019-06-18T02:26:14.212Z,1005.94
2019-06-18T02:27:14.100Z,1005.88
2019-06-18T02:28:14.212Z,1005.90
2019-06-18T02:29:14.103Z,1005.91
2019-06-18T02:30:14.118Z,1005.90
2019-06-18T02:31:14.349Z,1005.89
2019-06-18T02:32:14.708Z,1005.88
2019-06-18T02:33:14.771Z,1005.87
2019-06-18T02:34:14.070Z,1005.85
2019-06-18T02:35:14.053Z,1005.85
2019-06-18T02:36:14.082Z,1005.84
2019-06-18T02:37:14.157Z,1005.84
2019-06-18T02:38:14.089Z,1005.82
2019-06-18T02:39:14.081Z,1005.81
2019-06-18T02:40:14.165Z,1005.83
2019-06-18T02:41:14.145Z,1005.80
2019-06-18T02:42:14.081Z,1005.80
2019-06-18T02:43:14.148Z,1005.82
2019-06-18T02:44:14.087Z,1005.82
2019-06-18T02:45:14.152Z,1005.81
2019-06-18T02:46:14.163Z,1005.79
2019-06-18T02:47:16.069Z,1005.83
2019-06-18T02:48:14.172Z,1005.81
2019-06-18T02:49:14.173Z,1005.79
2019-06-18T02:50:14.174Z,1005.84
2019-06-18T02:51:14.123Z,1005.82
2019-06-18T02:52:14.096Z,1005.80
2019-06-18T02:53:14.170Z,1005.83
2019-06-18T02:54:14.174Z,1005.83
2019-06-18T02:55:14.239Z,1005.82
2019-06-18T02:56:14.168Z,1005.88
2019-06-18T02:57:14.171Z,1005.84
2019-06-18T02:58:14.164Z,1005.81
2019-06-18T02:59:14.113Z,1005.82
2019-06-18T03:00:14.179Z,1005.79
2019-06-18T03:01:14.181Z,1005.79
2019-06-18T03:02:14.177Z,1005.83
2019-06-18T03:03:14.191Z,1005.79
2019-06-18T03:04:14.110Z,1005.78
2019-06-18T03:05:14.154Z,1005.77
2019-06-18T03:06:14.102Z,1005.71
2019-06-18T03:07:14.167Z,1005.72
2019-06-18T03:08:14.100Z,1005.71
2019-06-18T03:09:14.114Z,1005.67
2019-06-18T03:10:14.195Z,1005.68
2019-06-18T03:11:14.107Z,1005.69
2019-06-18T03:12:14.106Z,1005.68
2019-06-18T03:13:14.106Z,1005.71
2019-06-18T03:14:14.170Z,1005.68
2019-06-18T03:15:14.179Z,1005.68
2019-06-18T03:16:14.164Z,1005.72
2019-06-18T03:17:28.167Z,1005.68
2019-06-18T03:18:14.086Z,1005.70
2019-06-18T03:19:14.173Z,1005.68
2019-06-18T03:20:14.146Z,1005.72
2019-06-18T03:21:16.127Z,1005.69
2019-06-18T03:22:14.165Z,1005.68
2019-06-18T03:23:14.105Z,1005.65
2019-06-18T03:24:14.083Z,1005.67
2019-06-18T03:25:14.062Z,1005.71
2019-06-18T03:26:14.191Z,1005.70
2019-06-18T03:27:14.194Z,1005.71
2019-06-18T03:28:14.198Z,1005.71
2019-06-18T03:29:14.218Z,1005.71
2019-06-18T03:30:15.248Z,1005.72
2019-06-18T03:31:15.419Z,1005.73
2019-06-18T03:32:14.797Z,1005.72
2019-06-18T03:33:15.428Z,1005.74
2019-06-18T03:34:15.456Z,1005.73
2019-06-18T03:35:14.206Z,1005.70
2019-06-18T03:36:14.202Z,1005.71
2019-06-18T03:37:14.196Z,1005.71
2019-06-18T03:38:14.165Z,1005.73
2019-06-18T03:39:14.199Z,1005.71
2019-06-18T03:40:14.201Z,1005.73
2019-06-18T03:41:14.138Z,1005.70
2019-06-18T03:42:14.134Z,1005.71
2019-06-18T03:43:14.132Z,1005.72
2019-06-18T03:44:14.209Z,1005.64
2019-06-18T03:45:14.135Z,1005.68
2019-06-18T03:46:14.094Z,1005.69
2019-06-18T03:47:14.206Z,1005.70
2019-06-18T03:48:14.149Z,1005.69
2019-06-18T03:49:14.220Z,1005.65
2019-06-18T03:50:14.157Z,1005.67
2019-06-18T03:51:14.152Z,1005.72
2019-06-18T03:52:14.215Z,1005.70
2019-06-18T03:53:14.210Z,1005.70
2019-06-18T03:54:14.141Z,1005.64
2019-06-18T03:55:14.216Z,1005.68
2019-06-18T03:56:14.223Z,1005.67
2019-06-18T03:57:14.199Z,1005.68
2019-06-18T03:58:14.139Z,1005.68
2019-06-18T03:59:14.205Z,1005.66
2019-06-18T04:00:14.135Z,1005.64
2019-06-18T04:01:14.136Z,1005.66
2019-06-18T04:02:14.128Z,1005.65
2019-06-18T04:03:14.130Z,1005.67
2019-06-18T04:04:14.207Z,1005.62
2019-06-18T04:05:14.195Z,1005.67
2019-06-18T04:06:14.217Z,1005.62
2019-06-18T04:07:14.220Z,1005.66
2019-06-18T04:08:14.227Z,1005.64
2019-06-18T04:09:14.153Z,1005.65
2019-06-18T04:10:14.225Z,1005.62
2019-06-18T04:11:14.224Z,1005.61
2019-06-18T04:12:14.230Z,1005.61
2019-06-18T04:13:14.158Z,1005.59
2019-06-18T04:14:14.226Z,1005.61
2019-06-18T04:15:14.225Z,1005.62
2019-06-18T04:16:14.165Z,1005.59
2019-06-18T04:17:14.130Z,1005.58
2019-06-18T04:18:14.217Z,1005.59
2019-06-18T04:19:14.162Z,1005.56
2019-06-18T04:20:14.134Z,1005.56
2019-06-18T04:21:14.148Z,1005.55
2019-06-18T04:22:14.230Z,1005.56
2019-06-18T04:23:14.221Z,1005.57
2019-06-18T04:24:14.147Z,1005.57
2019-06-18T04:25:14.239Z,1005.55
2019-06-18T04:26:14.226Z,1005.57
2019-06-18T04:27:14.226Z,1005.57
2019-06-18T04:28:14.249Z,1005.56
2019-06-18T04:29:14.188Z,1005.57
2019-06-18T04:30:14.318Z,1005.52
2019-06-18T04:31:14.256Z,1005.51
2019-06-18T04:32:14.179Z,1005.52
2019-06-18T04:33:14.258Z,1005.48
2019-06-18T04:34:14.206Z,1005.51
2019-06-18T04:35:14.271Z,1005.56
2019-06-18T04:36:14.179Z,1005.52
2019-06-18T04:37:14.252Z,1005.51
2019-06-18T04:38:14.251Z,1005.52
2019-06-18T04:39:14.278Z,1005.51
2019-06-18T04:40:14.180Z,1005.55
2019-06-18T04:41:14.256Z,1005.55
2019-06-18T04:42:14.248Z,1005.54
2019-06-18T04:43:14.183Z,1005.53
2019-06-18T04:44:14.251Z,1005.55
2019-06-18T04:45:14.190Z,1005.56
2019-06-18T04:46:14.250Z,1005.56
2019-06-18T04:47:16.607Z,1005.55
2019-06-18T04:48:23.740Z,1005.57
2019-06-18T04:49:14.242Z,1005.56
2019-06-18T04:50:14.241Z,1005.59
2019-06-18T04:51:14.243Z,1005.59
2019-06-18T04:52:14.254Z,1005.61
2019-06-18T04:53:14.169Z,1005.59
2019-06-18T04:54:14.168Z,1005.59
2019-06-18T04:55:14.177Z,1005.60
2019-06-18T04:56:14.251Z,1005.58
2019-06-18T04:57:14.266Z,1005.59
2019-06-18T04:58:14.267Z,1005.63
2019-06-18T04:59:14.194Z,1005.59
2019-06-18T05:00:14.173Z,1005.60
2019-06-18T05:01:14.208Z,1005.62
2019-06-18T05:02:14.193Z,1005.64
2019-06-18T05:03:14.205Z,1005.64
2019-06-18T05:04:14.269Z,1005.62
2019-06-18T05:05:14.202Z,1005.63
2019-06-18T05:06:14.212Z,1005.65
2019-06-18T05:07:14.254Z,1005.63
2019-06-18T05:08:14.278Z,1005.61
2019-06-18T05:09:14.254Z,1005.64
2019-06-18T05:10:14.192Z,1005.62
2019-06-18T05:11:14.183Z,1005.60
2019-06-18T05:12:14.192Z,1005.61
2019-06-18T05:13:14.260Z,1005.60
2019-06-18T05:14:14.263Z,1005.60
2019-06-18T05:15:14.190Z,1005.56
2019-06-18T05:16:14.197Z,1005.54
2019-06-18T05:17:14.209Z,1005.60
2019-06-18T05:18:14.283Z,1005.59
2019-06-18T05:19:14.229Z,1005.56
2019-06-18T05:20:14.288Z,1005.63
2019-06-18T05:21:14.206Z,1005.55
2019-06-18T05:22:14.193Z,1005.57
2019-06-18T05:23:14.284Z,1005.58
2019-06-18T05:24:14.289Z,1005.62
2019-06-18T05:25:14.219Z,1005.59
2019-06-18T05:26:14.286Z,1005.61
2019-06-18T05:27:14.174Z,1005.60
2019-06-18T05:28:14.172Z,1005.61
2019-06-18T05:29:14.617Z,1005.57
2019-06-18T05:30:14.238Z,1005.57
2019-06-18T05:31:14.268Z,1005.56
2019-06-18T05:32:14.158Z,1005.53
2019-06-18T05:33:14.277Z,1005.50
2019-06-18T05:34:14.183Z,1005.51
2019-06-18T05:35:14.218Z,1005.45
2019-06-18T05:36:14.175Z,1005.43
2019-06-18T05:37:14.218Z,1005.43
2019-06-18T05:38:14.133Z,1005.42
2019-06-18T05:39:14.221Z,1005.41
2019-06-18T05:40:14.206Z,1005.46
2019-06-18T05:41:14.219Z,1005.46
2019-06-18T05:42:14.211Z,1005.42
2019-06-18T05:43:14.160Z,1005.44
2019-06-18T05:44:14.145Z,1005.45
2019-06-18T05:45:14.137Z,1005.44
2019-06-18T05:46:14.176Z,1005.44
2019-06-18T05:47:14.216Z,1005.40
2019-06-18T05:48:14.198Z,1005.40
2019-06-18T05:49:14.220Z,1005.39
2019-06-18T05:50:14.231Z,1005.37
2019-06-18T05:51:14.232Z,1005.36
2019-06-18T05:52:14.292Z,1005.41
2019-06-18T05:53:14.225Z,1005.37
2019-06-18T05:54:14.294Z,1005.36
2019-06-18T05:55:14.296Z,1005.38
2019-06-18T05:56:14.221Z,1005.37
2019-06-18T05:57:14.271Z,1005.38
2019-06-18T05:58:14.220Z,1005.39
2019-06-18T05:59:14.297Z,1005.33
2019-06-18T06:00:14.221Z,1005.38
2019-06-18T06:01:14.299Z,1005.39
2019-06-18T06:02:14.221Z,1005.38
2019-06-18T06:03:14.189Z,1005.35
2019-06-18T06:04:14.209Z,1005.34
2019-06-18T06:05:14.225Z,1005.31
2019-06-18T06:06:14.301Z,1005.32
2019-06-18T06:07:16.085Z,1005.32
2019-06-18T06:08:14.314Z,1005.32
2019-06-18T06:09:14.250Z,1005.30
2019-06-18T06:10:14.313Z,1005.28
2019-06-18T06:11:14.322Z,1005.29
2019-06-18T06:12:14.278Z,1005.28
2019-06-18T06:13:14.318Z,1005.25
2019-06-18T06:14:14.251Z,1005.22
2019-06-18T06:15:14.320Z,1005.21
2019-06-18T06:16:14.255Z,1005.23
2019-06-18T06:17:14.325Z,1005.26
2019-06-18T06:18:14.258Z,1005.25
2019-06-18T06:19:17.821Z,1005.26
2019-06-18T06:20:14.257Z,1005.28
2019-06-18T06:21:14.322Z,1005.26
2019-06-18T06:22:14.344Z,1005.28
2019-06-18T06:23:14.331Z,1005.28
2019-06-18T06:24:14.333Z,1005.29
2019-06-18T06:25:14.387Z,1005.30
2019-06-18T06:26:15.374Z,1005.27
2019-06-18T06:27:14.261Z,1005.30
2019-06-18T06:28:14.276Z,1005.28
2019-06-18T06:29:14.914Z,1005.26
2019-06-18T06:30:14.259Z,1005.30
2019-06-18T06:31:14.263Z,1005.29
2019-06-18T06:32:14.274Z,1005.31
2019-06-18T06:33:14.266Z,1005.35
2019-06-18T06:34:14.263Z,1005.33
2019-06-18T06:35:14.426Z,1005.39
2019-06-18T06:36:14.348Z,1005.40
2019-06-18T06:37:14.384Z,1005.35
2019-06-18T06:38:14.355Z,1005.36
2019-06-18T06:39:14.336Z,1005.38
2019-06-18T06:40:14.352Z,1005.33
2019-06-18T06:41:14.276Z,1005.35
2019-06-18T06:42:14.350Z,1005.39
2019-06-18T06:43:14.273Z,1005.41
2019-06-18T06:44:14.300Z,1005.37
2019-06-18T06:45:14.342Z,1005.38
2019-06-18T06:46:14.277Z,1005.37
2019-06-18T06:47:15.066Z,1005.40
2019-06-18T06:48:14.367Z,1005.43
2019-06-18T06:49:29.637Z,1005.45
2019-06-18T06:50:14.335Z,1005.43
2019-06-18T06:51:14.351Z,1005.40
2019-06-18T06:52:14.256Z,1005.40
2019-06-18T06:53:14.254Z,1005.40
2019-06-18T06:54:15.433Z,1005.41
2019-06-18T06:55:14.264Z,1005.41
2019-06-18T06:56:14.251Z,1005.40
2019-06-18T06:57:14.338Z,1005.36
2019-06-18T06:58:23.067Z,1005.41
2019-06-18T06:59:14.347Z,1005.41
2019-06-18T07:00:14.285Z,1005.41
2019-06-18T07:01:14.285Z,1005.39
2019-06-18T07:02:14.343Z,1005.41
2019-06-18T07:03:14.296Z,1005.40
2019-06-18T07:04:14.283Z,1005.38
2019-06-18T07:05:14.311Z,1005.38
2019-06-18T07:06:14.214Z,1005.41
2019-06-18T07:07:14.347Z,1005.38
2019-06-18T07:08:14.313Z,1005.44
2019-06-18T07:09:14.233Z,1005.41
2019-06-18T07:10:14.252Z,1005.41
2019-06-18T07:11:14.271Z,1005.37
2019-06-18T07:12:14.342Z,1005.41
2019-06-18T07:13:14.350Z,1005.40
2019-06-18T07:14:14.266Z,1005.40
2019-06-18T07:15:14.336Z,1005.41
2019-06-18T07:16:14.319Z,1005.43
2019-06-18T07:17:14.284Z,1005.41
2019-06-18T07:18:14.270Z,1005.42
2019-06-18T07:19:14.294Z,1005.43
2019-06-18T07:20:14.282Z,1005.47
2019-06-18T07:21:14.368Z,1005.41
2019-06-18T07:22:14.287Z,1005.39
2019-06-18T07:23:14.366Z,1005.37
2019-06-18T07:24:14.362Z,1005.39
2019-06-18T07:25:14.364Z,1005.35
2019-06-18T07:26:14.286Z,1005.40
2019-06-18T07:27:14.305Z,1005.40
2019-06-18T07:28:16.955Z,1005.37
2019-06-18T07:29:14.626Z,1005.39
2019-06-18T07:30:14.301Z,1005.37
2019-06-18T07:31:14.251Z,1005.35
2019-06-18T07:32:14.288Z,1005.36
2019-06-18T07:33:14.244Z,1005.36
2019-06-18T07:34:14.343Z,1005.36
2019-06-18T07:35:14.364Z,1005.32
2019-06-18T07:36:14.279Z,1005.30
2019-06-18T07:37:14.378Z,1005.29
2019-06-18T07:38:14.314Z,1005.26
2019-06-18T07:39:14.381Z,1005.26
2019-06-18T07:40:14.320Z,1005.26
2019-06-18T07:41:14.315Z,1005.25
2019-06-18T07:42:14.386Z,1005.26
2019-06-18T07:43:14.346Z,1005.23
2019-06-18T07:44:14.320Z,1005.24
2019-06-18T07:45:14.322Z,1005.21
2019-06-18T07:46:14.324Z,1005.20
2019-06-18T07:47:14.273Z,1005.16
2019-06-18T07:48:14.306Z,1005.19
2019-06-18T07:49:14.381Z,1005.13
2019-06-18T07:50:18.145Z,1005.10
2019-06-18T07:51:14.275Z,1005.13
2019-06-18T07:52:14.383Z,1005.12
2019-06-18T07:53:14.379Z,1005.12
2019-06-18T07:54:14.401Z,1005.10
2019-06-18T07:55:14.391Z,1005.07
2019-06-18T07:56:14.385Z,1005.09
2019-06-18T07:57:14.387Z,1005.05
2019-06-18T07:58:14.405Z,1005.07
2019-06-18T07:59:14.386Z,1005.07
2019-06-18T08:00:14.387Z,1005.08
2019-06-18T08:01:14.390Z,1005.07
2019-06-18T08:02:14.320Z,1005.05
2019-06-18T08:03:14.301Z,1005.07
2019-06-18T08:04:14.316Z,1005.06
2019-06-18T08:05:14.319Z,1005.04
2019-06-18T08:06:14.317Z,1005.04
2019-06-18T08:07:14.969Z,1005.05
2019-06-18T08:08:14.247Z,1005.03
2019-06-18T08:09:14.423Z,1005.06
2019-06-18T08:10:14.265Z,1005.04
2019-06-18T08:11:14.347Z,1005.03
2019-06-18T08:12:14.290Z,1005.03
2019-06-18T08:13:14.345Z,1005.04
2019-06-18T08:14:14.320Z,1005.05
2019-06-18T08:15:14.246Z,1005.00
2019-06-18T08:16:14.311Z,1005.05
2019-06-18T08:17:14.237Z,1005.02
2019-06-18T08:18:14.390Z,1005.00
2019-06-18T08:19:14.361Z,1005.01
2019-06-18T08:20:30.698Z,1004.98
2019-06-18T08:21:14.311Z,1004.97
2019-06-18T08:22:17.841Z,1005.01
2019-06-18T08:23:14.343Z,1004.99
2019-06-18T08:24:14.428Z,1005.01
2019-06-18T08:25:14.299Z,1004.99
2019-06-18T08:26:14.331Z,1004.97
2019-06-18T08:27:14.353Z,1004.94
2019-06-18T08:28:14.445Z,1004.92
2019-06-18T08:29:14.412Z,1004.90
2019-06-18T08:30:25.948Z,1004.93
2019-06-18T08:31:14.338Z,1004.91
2019-06-18T08:32:14.356Z,1004.91
2019-06-18T08:33:14.386Z,1004.90
2019-06-18T08:34:14.314Z,1004.87
2019-06-18T08:35:14.417Z,1004.88
2019-06-18T08:36:14.421Z,1004.86
2019-06-18T08:37:14.302Z,1004.84
2019-06-18T08:38:14.421Z,1004.82
2019-06-18T08:39:14.419Z,1004.77
2019-06-18T08:40:14.381Z,1004.76
2019-06-18T08:41:14.421Z,1004.76
2019-06-18T08:42:14.327Z,1004.75
2019-06-18T08:43:14.394Z,1004.76
2019-06-18T08:44:14.361Z,1004.72
2019-06-18T08:45:14.364Z,1004.71
2019-06-18T08:46:14.355Z,1004.68
2019-06-18T08:47:14.423Z,1004.67
2019-06-18T08:48:14.309Z,1004.64
2019-06-18T08:49:14.299Z,1004.62
2019-06-18T08:50:14.392Z,1004.63
2019-06-18T08:51:14.357Z,1004.61
2019-06-18T08:52:14.357Z,1004.58
2019-06-18T08:53:14.331Z,1004.58
2019-06-18T08:54:14.425Z,1004.53
2019-06-18T08:55:14.336Z,1004.56
2019-06-18T08:56:14.856Z,1004.49
2019-06-18T08:57:14.331Z,1004.50
2019-06-18T08:58:14.371Z,1004.50
2019-06-18T08:59:14.396Z,1004.44
2019-06-18T09:00:14.306Z,1004.45
2019-06-18T09:01:14.312Z,1004.43
2019-06-18T09:02:14.374Z,1004.45
2019-06-18T09:03:25.721Z,1004.42
2019-06-18T09:04:14.398Z,1004.45
2019-06-18T09:05:14.361Z,1004.43
2019-06-18T09:06:14.349Z,1004.43
2019-06-18T09:07:14.447Z,1004.42
2019-06-18T09:08:14.455Z,1004.47
2019-06-18T09:09:14.477Z,1004.42
2019-06-18T09:10:14.400Z,1004.40
2019-06-18T09:11:14.453Z,1004.40
2019-06-18T09:12:14.455Z,1004.40
2019-06-18T09:13:14.383Z,1004.40
2019-06-18T09:14:14.394Z,1004.41
2019-06-18T09:15:14.400Z,1004.41
2019-06-18T09:16:14.400Z,1004.37
2019-06-18T09:17:14.458Z,1004.37
2019-06-18T09:18:17.251Z,1004.35
2019-06-18T09:19:14.458Z,1004.38
2019-06-18T09:20:14.413Z,1004.35
2019-06-18T09:21:14.461Z,1004.33
2019-06-18T09:22:14.404Z,1004.33
2019-06-18T09:23:14.462Z,1004.35
2019-06-18T09:24:14.476Z,1004.34
2019-06-18T09:25:14.480Z,1004.30
2019-06-18T09:26:14.397Z,1004.36
2019-06-18T09:27:14.462Z,1004.30
2019-06-18T09:28:14.397Z,1004.31
2019-06-18T09:29:14.419Z,1004.32
2019-06-18T09:30:14.480Z,1004.28
2019-06-18T09:31:14.402Z,1004.26
2019-06-18T09:32:14.479Z,1004.26
2019-06-18T09:33:14.471Z,1004.25
2019-06-18T09:34:14.470Z,1004.25
2019-06-18T09:35:14.479Z,1004.24
2019-06-18T09:36:14.399Z,1004.24
2019-06-18T09:37:14.471Z,1004.24
2019-06-18T09:38:14.469Z,1004.22
2019-06-18T09:39:14.423Z,1004.23
2019-06-18T09:40:14.406Z,1004.24
2019-06-18T09:41:14.401Z,1004.24
2019-06-18T09:42:14.478Z,1004.23
2019-06-18T09:43:14.406Z,1004.21
2019-06-18T09:44:14.808Z,1004.16
2019-06-18T09:45:14.569Z,1004.23
2019-06-18T09:46:14.413Z,1004.18
2019-06-18T09:47:14.358Z,1004.19
2019-06-18T09:48:14.358Z,1004.16
2019-06-18T09:49:14.430Z,1004.12
2019-06-18T09:50:14.422Z,1004.10
2019-06-18T09:51:22.954Z,1004.13
2019-06-18T09:52:14.382Z,1004.11
2019-06-18T09:53:17.311Z,1004.08
2019-06-18T09:54:14.341Z,1004.05
2019-06-18T09:55:14.403Z,1004.06
2019-06-18T09:56:14.401Z,1004.06
2019-06-18T09:57:14.472Z,1004.01
2019-06-18T09:58:14.404Z,1004.06
2019-06-18T09:59:14.434Z,1004.03
2019-06-18T10:00:14.433Z,1004.03
2019-06-18T10:01:14.437Z,1004.04
2019-06-18T10:02:14.388Z,1004.03
2019-06-18T10:03:14.405Z,1004.04
2019-06-18T10:04:14.377Z,1004.04
2019-06-18T10:05:14.410Z,1004.02
2019-06-18T10:06:14.318Z,1004.00
2019-06-18T10:07:14.439Z,1004.04
2019-06-18T10:08:14.486Z,1004.01
2019-06-18T10:10:14.431Z,1004.00
2019-06-18T10:11:14.428Z,1003.98
2019-06-18T10:12:14.430Z,1003.97
2019-06-18T10:13:14.417Z,1003.96
2019-06-18T10:14:14.487Z,1003.95
2019-06-18T10:15:14.424Z,1003.96
2019-06-18T10:16:14.492Z,1003.95
2019-06-18T10:17:14.489Z,1003.94
2019-06-18T10:18:14.437Z,1003.95
2019-06-18T10:19:14.692Z,1003.96
2019-06-18T10:20:14.434Z,1003.96
2019-06-18T10:21:14.530Z,1003.92
2019-06-18T10:22:14.438Z,1003.95
2019-06-18T10:23:14.510Z,1003.93
2019-06-18T10:24:14.509Z,1003.92
2019-06-18T10:25:14.530Z,1003.89
2019-06-18T10:26:14.507Z,1003.88
2019-06-18T10:27:14.439Z,1003.91
2019-06-18T10:28:14.381Z,1003.90
2019-06-18T10:29:28.961Z,1003.93
2019-06-18T10:30:14.398Z,1003.86
2019-06-18T10:31:14.486Z,1003.88
2019-06-18T10:32:14.385Z,1003.88
2019-06-18T10:33:14.428Z,1003.88
2019-06-18T10:34:14.500Z,1003.86
2019-06-18T10:35:14.493Z,1003.85
2019-06-18T10:36:14.505Z,1003.81
2019-06-18T10:37:14.501Z,1003.81
2019-06-18T10:38:14.395Z,1003.80
2019-06-18T10:39:14.471Z,1003.81
2019-06-18T10:40:14.407Z,1003.80
2019-06-18T10:41:18.330Z,1003.82
2019-06-18T10:42:14.341Z,1003.77
2019-06-18T10:43:14.435Z,1003.78
2019-06-18T10:44:14.384Z,1003.76
2019-06-18T10:45:14.468Z,1003.76
2019-06-18T10:46:14.465Z,1003.74
2019-06-18T10:47:14.470Z,1003.70
2019-06-18T10:48:14.533Z,1003.71
2019-06-18T10:49:18.405Z,1003.72
2019-06-18T10:50:14.524Z,1003.69
2019-06-18T10:51:14.468Z,1003.67
2019-06-18T10:52:14.459Z,1003.67
2019-06-18T10:53:14.464Z,1003.70
2019-06-18T10:54:14.535Z,1003.66
2019-06-18T10:55:14.463Z,1003.66
2019-06-18T10:56:14.466Z,1003.65
2019-06-18T10:57:14.530Z,1003.62
2019-06-18T10:58:14.483Z,1003.62
2019-06-18T10:59:14.482Z,1003.63
2019-06-18T11:00:14.461Z,1003.59
2019-06-18T11:01:14.485Z,1003.59
2019-06-18T11:02:14.454Z,1003.60
2019-06-18T11:03:14.482Z,1003.56
2019-06-18T11:04:14.517Z,1003.54
2019-06-18T11:05:14.438Z,1003.53
2019-06-18T11:06:14.401Z,1003.55
2019-06-18T11:07:14.485Z,1003.53
2019-06-18T11:08:14.549Z,1003.53
2019-06-18T11:09:14.542Z,1003.55
2019-06-18T11:10:14.550Z,1003.56
2019-06-18T11:11:14.545Z,1003.51
2019-06-18T11:12:14.495Z,1003.46
2019-06-18T11:13:14.474Z,1003.46
2019-06-18T11:14:15.961Z,1003.48
2019-06-18T11:15:14.570Z,1003.49
2019-06-18T11:16:14.545Z,1003.49
2019-06-18T11:17:14.545Z,1003.47
2019-06-18T11:18:14.481Z,1003.46
2019-06-18T11:19:14.545Z,1003.46
2019-06-18T11:20:14.481Z,1003.45
2019-06-18T11:21:14.546Z,1003.44
2019-06-18T11:22:14.847Z,1003.46
2019-06-18T11:23:30.220Z,1003.45
2019-06-18T11:24:14.593Z,1003.37
2019-06-18T11:25:17.269Z,1003.34
2019-06-18T11:26:14.561Z,1003.34
2019-06-18T11:27:14.555Z,1003.35
2019-06-18T11:28:14.488Z,1003.37
2019-06-18T11:29:14.555Z,1003.33
2019-06-18T11:30:14.555Z,1003.30
2019-06-18T11:31:14.559Z,1003.32
2019-06-18T11:32:14.500Z,1003.29
2019-06-18T11:33:14.578Z,1003.29
2019-06-18T11:34:14.498Z,1003.33
2019-06-18T11:35:14.562Z,1003.34
2019-06-18T11:36:14.563Z,1003.36
2019-06-18T11:37:14.566Z,1003.29
2019-06-18T11:38:14.501Z,1003.29
2019-06-18T11:39:14.508Z,1003.27
2019-06-18T11:40:14.514Z,1003.22
2019-06-18T11:41:14.568Z,1003.22
2019-06-18T11:42:14.496Z,1003.23
2019-06-18T11:43:14.578Z,1003.22
2019-06-18T11:44:14.566Z,1003.21
2019-06-18T11:45:14.578Z,1003.18
2019-06-18T11:46:14.567Z,1003.21
2019-06-18T11:47:14.503Z,1003.18
2019-06-18T11:48:14.560Z,1003.19
2019-06-18T11:49:14.493Z,1003.13
2019-06-18T11:50:14.563Z,1003.14
2019-06-18T11:51:14.495Z,1003.15
2019-06-18T11:52:28.932Z,1003.13
2019-06-18T11:53:14.565Z,1003.15
2019-06-18T11:54:14.560Z,1003.10
2019-06-18T11:55:14.574Z,1003.11
2019-06-18T11:56:14.592Z,1003.13
2019-06-18T11:57:14.568Z,1003.10
2019-06-18T11:58:14.492Z,1003.07
2019-06-18T11:59:14.437Z,1003.06
2019-06-18T12:00:14.465Z,1003.06
2019-06-18T12:01:14.537Z,1003.06
2019-06-18T12:02:14.448Z,1003.05
2019-06-18T12:03:14.579Z,1003.02
2019-06-18T12:04:14.467Z,1003.00
2019-06-18T12:05:14.440Z,1003.02
2019-06-18T12:06:14.525Z,1002.94